sensor_id;sensor_type;location;lat;lon;timestamp;pressure;altitude;pressure_sealevel;temperature;humidity
73101;BME280;61288;53.446;-2.266;2023-06-01T00:00:56;102628.09;;;10.37;76.01
73101;BME280;61288;53.446;-2.266;2023-06-01T00:03:22;102626.38;;;10.36;76.06
73101;BME280;61288;53.446;-2.266;2023-06-01T00:05:48;102633.38;;;10.30;76.15
73101;BME280;61288;53.446;-2.266;2023-06-01T00:08:14;102635.13;;;10.28;76.17
73101;BME280;61288;53.446;-2.266;2023-06-01T00:10:40;102633.38;;;10.28;76.68
73101;BME280;61288;53.446;-2.266;2023-06-01T00:13:05;102626.47;;;10.27;76.48
73101;BME280;61288;53.446;-2.266;2023-06-01T00:15:31;102632.53;;;10.28;76.45
73101;BME280;61288;53.446;-2.266;2023-06-01T00:17:56;102639.44;;;10.25;76.33
73101;BME280;61288;53.446;-2.266;2023-06-01T00:20:22;102630.84;;;10.20;76.29
73101;BME280;61288;53.446;-2.266;2023-06-01T00:22:49;102636.03;;;10.22;76.40
73101;BME280;61288;53.446;-2.266;2023-06-01T00:25:15;102642.09;;;10.16;76.14
73101;BME280;61288;53.446;-2.266;2023-06-01T00:27:40;102638.66;;;10.14;76.11
73101;BME280;61288;53.446;-2.266;2023-06-01T00:30:06;102639.56;;;10.11;76.18
73101;BME280;61288;53.446;-2.266;2023-06-01T00:32:32;102636.13;;;10.08;76.00
73101;BME280;61288;53.446;-2.266;2023-06-01T00:34:57;102638.72;;;10.05;76.39
73101;BME280;61288;53.446;-2.266;2023-06-01T00:37:23;102643.06;;;10.03;76.64
73101;BME280;61288;53.446;-2.266;2023-06-01T00:39:48;102644.84;;;9.97;76.45
73101;BME280;61288;53.446;-2.266;2023-06-01T00:42:14;102644.84;;;9.94;76.01
73101;BME280;61288;53.446;-2.266;2023-06-01T00:44:39;102644.84;;;9.94;76.25
73101;BME280;61288;53.446;-2.266;2023-06-01T00:47:05;102647.47;;;9.90;76.08
73101;BME280;61288;53.446;-2.266;2023-06-01T00:49:31;102637.13;;;9.85;76.42
73101;BME280;61288;53.446;-2.266;2023-06-01T00:51:56;102638.88;;;9.85;76.46
73101;BME280;61288;53.446;-2.266;2023-06-01T00:54:22;102644.03;;;9.88;77.01
73101;BME280;61288;53.446;-2.266;2023-06-01T00:56:48;102637.97;;;9.87;77.40
73101;BME280;61288;53.446;-2.266;2023-06-01T00:59:13;102634.56;;;9.82;76.86
73101;BME280;61288;53.446;-2.266;2023-06-01T01:01:39;102632.88;;;9.79;76.68
73101;BME280;61288;53.446;-2.266;2023-06-01T01:04:07;102638.06;;;9.75;76.76
73101;BME280;61288;53.446;-2.266;2023-06-01T01:06:50;102638.94;;;9.72;76.99
73101;BME280;61288;53.446;-2.266;2023-06-01T01:09:46;102638.91;;;9.77;77.31
73101;BME280;61288;53.446;-2.266;2023-06-01T01:12:23;102650.13;;;9.76;77.26
73101;BME280;61288;53.446;-2.266;2023-06-01T01:15:00;102640.66;;;9.72;76.93
73101;BME280;61288;53.446;-2.266;2023-06-01T01:17:33;102632.91;;;9.72;77.16
73101;BME280;61288;53.446;-2.266;2023-06-01T01:20:17;102640.66;;;9.70;77.29
73101;BME280;61288;53.446;-2.266;2023-06-01T01:31:02;102638.94;;;9.74;77.13
73101;BME280;61288;53.446;-2.266;2023-06-01T01:33:31;102634.59;;;9.76;77.62
73101;BME280;61288;53.446;-2.266;2023-06-01T01:35:58;102638.94;;;9.74;77.22
73101;BME280;61288;53.446;-2.266;2023-06-01T01:38:24;102637.19;;;9.74;77.51
73101;BME280;61288;53.446;-2.266;2023-06-01T01:40:50;102632.00;;;9.74;77.46
73101;BME280;61288;53.446;-2.266;2023-06-01T01:43:18;102632.84;;;9.76;77.69
73101;BME280;61288;53.446;-2.266;2023-06-01T01:45:59;102633.72;;;9.80;78.14
73101;BME280;61288;53.446;-2.266;2023-06-01T01:48:32;102632.84;;;9.76;77.73
73101;BME280;61288;53.446;-2.266;2023-06-01T01:51:14;102622.50;;;9.78;77.88
73101;BME280;61288;53.446;-2.266;2023-06-01T01:53:41;102625.94;;;9.80;78.16
73101;BME280;61288;53.446;-2.266;2023-06-01T01:56:09;102619.03;;;9.77;77.50
73101;BME280;61288;53.446;-2.266;2023-06-01T01:58:35;102614.75;;;9.78;77.49
73101;BME280;61288;53.446;-2.266;2023-06-01T02:01:02;102615.63;;;9.77;77.63
73101;BME280;61288;53.446;-2.266;2023-06-01T02:03:28;102613.91;;;9.76;77.18
73101;BME280;61288;53.446;-2.266;2023-06-01T02:05:54;102613.00;;;9.75;77.79
73101;BME280;61288;53.446;-2.266;2023-06-01T02:08:19;102617.31;;;9.76;77.45
73101;BME280;61288;53.446;-2.266;2023-06-01T02:10:45;102608.75;;;9.70;77.79
73101;BME280;61288;53.446;-2.266;2023-06-01T02:13:11;102610.47;;;9.69;77.72
73101;BME280;61288;53.446;-2.266;2023-06-01T02:15:36;102615.66;;;9.66;77.74
73101;BME280;61288;53.446;-2.266;2023-06-01T02:18:02;102613.97;;;9.66;77.99
73101;BME280;61288;53.446;-2.266;2023-06-01T02:20:27;102614.81;;;9.65;77.75
73101;BME280;61288;53.446;-2.266;2023-06-01T02:22:53;102609.66;;;9.64;77.88
73101;BME280;61288;53.446;-2.266;2023-06-01T02:25:18;102609.66;;;9.64;77.43
73101;BME280;61288;53.446;-2.266;2023-06-01T02:27:44;102606.19;;;9.65;77.55
73101;BME280;61288;53.446;-2.266;2023-06-01T02:30:10;102610.50;;;9.67;77.69
73101;BME280;61288;53.446;-2.266;2023-06-01T02:32:38;102607.91;;;9.66;77.47
73101;BME280;61288;53.446;-2.266;2023-06-01T02:35:04;102613.09;;;9.64;77.70
73101;BME280;61288;53.446;-2.266;2023-06-01T02:37:32;102600.13;;;9.66;77.24
73101;BME280;61288;53.446;-2.266;2023-06-01T02:39:58;102610.50;;;9.66;77.27
73101;BME280;61288;53.446;-2.266;2023-06-01T02:42:23;102613.94;;;9.65;77.25
73101;BME280;61288;53.446;-2.266;2023-06-01T02:44:50;102607.94;;;9.63;77.20
73101;BME280;61288;53.446;-2.266;2023-06-01T02:47:16;102603.63;;;9.62;77.05
73101;BME280;61288;53.446;-2.266;2023-06-01T02:49:42;102605.34;;;9.63;77.34
73101;BME280;61288;53.446;-2.266;2023-06-01T02:52:07;102607.03;;;9.67;77.63
73101;BME280;61288;53.446;-2.266;2023-06-01T02:54:33;102605.34;;;9.63;77.28
73101;BME280;61288;53.446;-2.266;2023-06-01T02:56:59;102613.97;;;9.60;77.13
73101;BME280;61288;53.446;-2.266;2023-06-01T02:59:27;102605.34;;;9.58;77.45
73101;BME280;61288;53.446;-2.266;2023-06-01T03:01:53;102614.88;;;9.58;77.60
73101;BME280;61288;53.446;-2.266;2023-06-01T03:04:18;102614.88;;;9.54;77.39
73101;BME280;61288;53.446;-2.266;2023-06-01T03:06:46;102603.69;;;9.52;77.63
73101;BME280;61288;53.446;-2.266;2023-06-01T03:09:12;102608.84;;;9.51;77.46
73101;BME280;61288;53.446;-2.266;2023-06-01T03:11:41;102602.84;;;9.47;77.58
73101;BME280;61288;53.446;-2.266;2023-06-01T03:14:07;102604.56;;;9.47;77.68
73101;BME280;61288;53.446;-2.266;2023-06-01T03:16:32;102611.47;;;9.46;77.48
73101;BME280;61288;53.446;-2.266;2023-06-01T03:18:57;102618.38;;;9.46;77.59
73101;BME280;61288;53.446;-2.266;2023-06-01T03:21:23;102613.19;;;9.44;77.38
73101;BME280;61288;53.446;-2.266;2023-06-01T03:23:50;102608.91;;;9.42;77.33
73101;BME280;61288;53.446;-2.266;2023-06-01T03:26:15;102603.75;;;9.38;77.22
73101;BME280;61288;53.446;-2.266;2023-06-01T03:28:44;102604.59;;;9.39;77.39
73101;BME280;61288;53.446;-2.266;2023-06-01T03:31:09;102614.97;;;9.33;77.32
73101;BME280;61288;53.446;-2.266;2023-06-01T03:33:38;102616.72;;;9.32;77.44
73101;BME280;61288;53.446;-2.266;2023-06-01T03:36:04;102613.25;;;9.35;77.57
73101;BME280;61288;53.446;-2.266;2023-06-01T03:38:30;102598.56;;;9.37;77.64
73101;BME280;61288;53.446;-2.266;2023-06-01T03:40:55;102602.88;;;9.38;77.59
73101;BME280;61288;53.446;-2.266;2023-06-01T03:43:22;102602.00;;;9.39;77.57
73101;BME280;61288;53.446;-2.266;2023-06-01T03:45:48;102604.63;;;9.37;77.24
73101;BME280;61288;53.446;-2.266;2023-06-01T03:48:13;102598.56;;;9.37;77.16
73101;BME280;61288;53.446;-2.266;2023-06-01T03:50:39;102598.56;;;9.37;77.21
73101;BME280;61288;53.446;-2.266;2023-06-01T03:53:06;102597.72;;;9.35;76.79
73101;BME280;61288;53.446;-2.266;2023-06-01T03:55:33;102589.97;;;9.33;77.14
73101;BME280;61288;53.446;-2.266;2023-06-01T03:58:01;102594.25;;;9.36;77.22
73101;BME280;61288;53.446;-2.266;2023-06-01T04:00:28;102592.56;;;9.32;77.17
73101;BME280;61288;53.446;-2.266;2023-06-01T04:02:55;102589.97;;;9.33;77.27
73101;BME280;61288;53.446;-2.266;2023-06-01T04:05:22;102595.13;;;9.36;77.56
73101;BME280;61288;53.446;-2.266;2023-06-01T04:07:52;102580.47;;;9.37;77.78
73101;BME280;61288;53.446;-2.266;2023-06-01T04:10:18;102589.09;;;9.37;77.30
73101;BME280;61288;53.446;-2.266;2023-06-01T04:12:46;102586.53;;;9.34;76.90
73101;BME280;61288;53.446;-2.266;2023-06-01T04:15:13;102588.25;;;9.32;77.26
73101;BME280;61288;53.446;-2.266;2023-06-01T04:17:40;102579.59;;;9.35;77.38
73101;BME280;61288;53.446;-2.266;2023-06-01T04:20:13;102584.78;;;9.35;77.34
73101;BME280;61288;53.446;-2.266;2023-06-01T04:22:40;102583.03;;;9.37;77.37
73101;BME280;61288;53.446;-2.266;2023-06-01T04:25:08;102594.25;;;9.36;77.40
73101;BME280;61288;53.446;-2.266;2023-06-01T04:27:34;102591.72;;;9.31;77.15
73101;BME280;61288;53.446;-2.266;2023-06-01T04:30:06;102588.25;;;9.32;77.46
73101;BME280;61288;53.446;-2.266;2023-06-01T04:32:54;102597.72;;;9.36;77.43
73101;BME280;61288;53.446;-2.266;2023-06-01T04:35:20;102597.69;;;9.38;77.15
73101;BME280;61288;53.446;-2.266;2023-06-01T04:37:46;102583.91;;;9.39;77.00
73101;BME280;61288;53.446;-2.266;2023-06-01T04:40:13;102588.25;;;9.35;76.87
73101;BME280;61288;53.446;-2.266;2023-06-01T04:42:41;102589.06;;;9.39;77.31
73101;BME280;61288;53.446;-2.266;2023-06-01T04:45:10;102584.75;;;9.41;77.41
73101;BME280;61288;53.446;-2.266;2023-06-01T04:47:36;102589.94;;;9.43;77.69
73101;BME280;61288;53.446;-2.266;2023-06-01T04:50:06;102589.06;;;9.45;77.46
73101;BME280;61288;53.446;-2.266;2023-06-01T04:52:34;102589.03;;;9.48;77.64
73101;BME280;61288;53.446;-2.266;2023-06-01T04:55:01;102584.72;;;9.50;77.75
73101;BME280;61288;53.446;-2.266;2023-06-01T04:57:26;102586.47;;;9.48;77.28
73101;BME280;61288;53.446;-2.266;2023-06-01T04:59:52;102584.72;;;9.49;77.65
73101;BME280;61288;53.446;-2.266;2023-06-01T05:02:23;102590.72;;;9.54;77.97
73101;BME280;61288;53.446;-2.266;2023-06-01T05:04:50;102592.44;;;9.57;77.90
73101;BME280;61288;53.446;-2.266;2023-06-01T05:07:15;102590.69;;;9.59;77.73
73101;BME280;61288;53.446;-2.266;2023-06-01T05:09:41;102600.16;;;9.64;78.10
73101;BME280;61288;53.446;-2.266;2023-06-01T05:12:07;102589.78;;;9.66;77.92
73101;BME280;61288;53.446;-2.266;2023-06-01T05:14:35;102590.66;;;9.65;77.79
73101;BME280;61288;53.446;-2.266;2023-06-01T05:17:00;102588.91;;;9.67;77.90
73101;BME280;61288;53.446;-2.266;2023-06-01T05:19:26;102595.81;;;9.70;77.71
73101;BME280;61288;53.446;-2.266;2023-06-01T05:21:51;102590.63;;;9.71;78.05
73101;BME280;61288;53.446;-2.266;2023-06-01T05:24:18;102586.28;;;9.73;78.04
73101;BME280;61288;53.446;-2.266;2023-06-01T05:26:44;102581.94;;;9.75;77.87
73101;BME280;61288;53.446;-2.266;2023-06-01T05:29:09;102589.72;;;9.77;77.80
73101;BME280;61288;53.446;-2.266;2023-06-01T05:31:35;102587.09;;;9.80;77.98
73101;BME280;61288;53.446;-2.266;2023-06-01T05:34:01;102596.59;;;9.82;77.88
73101;BME280;61288;53.446;-2.266;2023-06-01T05:36:27;102587.13;;;9.81;78.16
73101;BME280;61288;53.446;-2.266;2023-06-01T05:38:52;102584.50;;;9.85;78.16
73101;BME280;61288;53.446;-2.266;2023-06-01T05:41:18;102576.69;;;9.86;78.75
73101;BME280;61288;53.446;-2.266;2023-06-01T05:43:43;102578.41;;;9.92;79.12
73101;BME280;61288;53.446;-2.266;2023-06-01T05:46:09;102593.94;;;9.92;78.29
73101;BME280;61288;53.446;-2.266;2023-06-01T05:48:34;102588.75;;;9.92;78.43
73101;BME280;61288;53.446;-2.266;2023-06-01T05:51:00;102584.44;;;9.89;78.58
73101;BME280;61288;53.446;-2.266;2023-06-01T05:53:25;102584.44;;;9.94;78.45
73101;BME280;61288;53.446;-2.266;2023-06-01T05:55:52;102584.38;;;10.00;79.80
73101;BME280;61288;53.446;-2.266;2023-06-01T05:58:18;102584.34;;;10.05;79.57
73101;BME280;61288;53.446;-2.266;2023-06-01T06:00:43;102584.34;;;10.03;77.84
73101;BME280;61288;53.446;-2.266;2023-06-01T06:03:09;102576.56;;;10.03;77.80
73101;BME280;61288;53.446;-2.266;2023-06-01T06:05:34;102577.38;;;10.08;77.64
73101;BME280;61288;53.446;-2.266;2023-06-01T06:08:00;102573.09;;;10.07;76.86
73101;BME280;61288;53.446;-2.266;2023-06-01T06:10:26;102582.56;;;10.11;77.25
73101;BME280;61288;53.446;-2.266;2023-06-01T06:12:52;102583.38;;;10.15;77.34
73101;BME280;61288;53.446;-2.266;2023-06-01T06:15:17;102580.78;;;10.15;76.40
73101;BME280;61288;53.446;-2.266;2023-06-01T06:17:43;102585.06;;;10.21;76.53
73101;BME280;61288;53.446;-2.266;2023-06-01T06:20:09;102585.06;;;10.24;75.42
73101;BME280;61288;53.446;-2.266;2023-06-01T06:22:35;102585.00;;;10.27;74.99
73101;BME280;61288;53.446;-2.266;2023-06-01T06:25:02;102585.00;;;10.29;74.48
73101;BME280;61288;53.446;-2.266;2023-06-01T06:27:30;102591.03;;;10.29;74.66
73101;BME280;61288;53.446;-2.266;2023-06-01T06:29:55;102581.53;;;10.33;74.29
73101;BME280;61288;53.446;-2.266;2023-06-01T06:32:21;102576.31;;;10.34;74.59
73101;BME280;61288;53.446;-2.266;2023-06-01T06:34:47;102577.19;;;10.35;73.96
73101;BME280;61288;53.446;-2.266;2023-06-01T06:37:12;102581.47;;;10.42;73.65
73101;BME280;61288;53.446;-2.266;2023-06-01T06:39:38;102583.97;;;10.48;73.04
73101;BME280;61288;53.446;-2.266;2023-06-01T06:42:04;102574.38;;;10.58;72.95
73101;BME280;61288;53.446;-2.266;2023-06-01T06:44:31;102574.34;;;10.61;72.73
73101;BME280;61288;53.446;-2.266;2023-06-01T06:46:58;102572.59;;;10.63;72.44
73101;BME280;61288;53.446;-2.266;2023-06-01T06:49:24;102566.56;;;10.61;72.10
73101;BME280;61288;53.446;-2.266;2023-06-01T06:51:49;102576.91;;;10.64;72.29
73101;BME280;61288;53.446;-2.266;2023-06-01T06:54:15;102571.72;;;10.66;72.12
73101;BME280;61288;53.446;-2.266;2023-06-01T06:56:41;102575.91;;;10.76;72.93
73101;BME280;61288;53.446;-2.266;2023-06-01T06:59:08;102576.91;;;10.66;72.31
73101;BME280;61288;53.446;-2.266;2023-06-01T07:01:33;102570.81;;;10.68;72.25
73101;BME280;61288;53.446;-2.266;2023-06-01T07:04:01;102583.75;;;10.73;72.51
73101;BME280;61288;53.446;-2.266;2023-06-01T07:06:27;102581.91;;;10.81;71.91
73101;BME280;61288;53.446;-2.266;2023-06-01T07:08:52;102577.47;;;10.91;72.73
73101;BME280;61288;53.446;-2.266;2023-06-01T07:11:18;102588.66;;;10.98;72.50
73101;BME280;61288;53.446;-2.266;2023-06-01T07:13:44;102581.63;;;11.05;70.95
73101;BME280;61288;53.446;-2.266;2023-06-01T07:16:09;102586.78;;;11.09;70.80
73101;BME280;61288;53.446;-2.266;2023-06-01T07:18:35;102585.84;;;11.15;70.78
73101;BME280;61288;53.446;-2.266;2023-06-01T07:21:01;102585.84;;;11.15;69.88
73101;BME280;61288;53.446;-2.266;2023-06-01T07:23:27;102585.00;;;11.13;69.97
73101;BME280;61288;53.446;-2.266;2023-06-01T07:25:52;102584.06;;;11.19;70.37
73101;BME280;61288;53.446;-2.266;2023-06-01T07:28:18;102586.59;;;11.22;70.20
73101;BME280;61288;53.446;-2.266;2023-06-01T07:30:44;102591.66;;;11.34;71.52
73101;BME280;61288;53.446;-2.266;2023-06-01T07:33:09;102578.44;;;11.50;70.32
73101;BME280;61288;53.446;-2.266;2023-06-01T07:35:36;102581.69;;;11.67;69.52
73101;BME280;61288;53.446;-2.266;2023-06-01T07:38:01;102584.72;;;11.94;69.42
73101;BME280;61288;53.446;-2.266;2023-06-01T07:40:29;102577.56;;;12.10;69.34
73101;BME280;61288;53.446;-2.266;2023-06-01T07:42:57;102579.84;;;12.31;68.29
73101;BME280;61288;53.446;-2.266;2023-06-01T07:45:23;102573.38;;;12.52;67.34
73101;BME280;61288;53.446;-2.266;2023-06-01T07:47:49;102579.09;;;12.71;65.15
73101;BME280;61288;53.446;-2.266;2023-06-01T07:50:15;102581.63;;;13.17;64.79
73101;BME280;61288;53.446;-2.266;2023-06-01T07:52:41;102588.09;;;13.38;63.76
73101;BME280;61288;53.446;-2.266;2023-06-01T07:55:07;102588.31;;;13.28;62.82
73101;BME280;61288;53.446;-2.266;2023-06-01T07:57:35;102597.28;;;13.15;63.13
73101;BME280;61288;53.446;-2.266;2023-06-01T08:00:01;102594.13;;;12.53;63.30
73101;BME280;61288;53.446;-2.266;2023-06-01T08:02:27;102600.28;;;12.49;64.21
73101;BME280;61288;53.446;-2.266;2023-06-01T08:04:53;102595.84;;;12.56;64.33
73101;BME280;61288;53.446;-2.266;2023-06-01T08:07:22;102591.38;;;12.63;64.69
73101;BME280;61288;53.446;-2.266;2023-06-01T08:09:48;102594.91;;;12.59;64.09
73101;BME280;61288;53.446;-2.266;2023-06-01T08:12:14;102599.03;;;12.70;65.07
73101;BME280;61288;53.446;-2.266;2023-06-01T08:14:41;102593.53;;;12.86;66.38
73101;BME280;61288;53.446;-2.266;2023-06-01T08:17:07;102597.59;;;12.99;65.57
73101;BME280;61288;53.446;-2.266;2023-06-01T08:19:34;102601.69;;;13.13;65.68
73101;BME280;61288;53.446;-2.266;2023-06-01T08:22:00;102590.16;;;13.23;66.50
73101;BME280;61288;53.446;-2.266;2023-06-01T08:24:29;102595.31;;;13.26;63.10
73101;BME280;61288;53.446;-2.266;2023-06-01T08:26:57;102591.47;;;13.46;63.44
73101;BME280;61288;53.446;-2.266;2023-06-01T08:29:23;102586.09;;;13.52;62.52
73101;BME280;61288;53.446;-2.266;2023-06-01T08:31:49;102591.50;;;13.41;62.30
73101;BME280;61288;53.446;-2.266;2023-06-01T08:34:14;102588.72;;;13.52;62.74
73101;BME280;61288;53.446;-2.266;2023-06-01T08:36:39;102588.72;;;13.52;61.90
73101;BME280;61288;53.446;-2.266;2023-06-01T08:39:24;102591.38;;;13.49;61.62
73101;BME280;61288;53.446;-2.266;2023-06-01T08:42:08;102592.34;;;13.45;61.58
73101;BME280;61288;53.446;-2.266;2023-06-01T08:44:41;102595.41;;;13.22;61.66
73101;BME280;61288;53.446;-2.266;2023-06-01T08:47:08;102589.50;;;13.15;62.43
73101;BME280;61288;53.446;-2.266;2023-06-01T08:49:36;102585.19;;;13.12;62.67
73101;BME280;61288;53.446;-2.266;2023-06-01T08:52:14;102589.22;;;13.27;62.54
73101;BME280;61288;53.446;-2.266;2023-06-01T08:54:43;102584.81;;;13.29;62.45
73101;BME280;61288;53.446;-2.266;2023-06-01T08:57:09;102595.16;;;13.33;62.15
73101;BME280;61288;53.446;-2.266;2023-06-01T08:59:36;102586.28;;;13.45;62.07
73101;BME280;61288;53.446;-2.266;2023-06-01T09:02:06;102582.81;;;13.44;61.31
73101;BME280;61288;53.446;-2.266;2023-06-01T09:04:35;102571.22;;;13.57;61.54
73101;BME280;61288;53.446;-2.266;2023-06-01T09:07:03;102565.44;;;13.82;61.78
73101;BME280;61288;53.446;-2.266;2023-06-01T09:09:28;102570.06;;;14.06;61.21
73101;BME280;61288;53.446;-2.266;2023-06-01T09:12:20;102571.06;;;14.35;61.96
73101;BME280;61288;53.446;-2.266;2023-06-01T09:14:47;102578.00;;;14.36;59.15
73101;BME280;61288;53.446;-2.266;2023-06-01T09:17:15;102569.38;;;14.34;58.25
73101;BME280;61288;53.446;-2.266;2023-06-01T09:19:47;102571.09;;;14.33;58.40
73101;BME280;61288;53.446;-2.266;2023-06-01T09:22:15;102562.63;;;14.25;58.96
73101;BME280;61288;53.446;-2.266;2023-06-01T09:24:41;102561.25;;;14.11;59.48
73101;BME280;61288;53.446;-2.266;2023-06-01T09:27:19;102562.78;;;14.19;60.49
73101;BME280;61288;53.446;-2.266;2023-06-01T09:29:53;102557.34;;;14.28;60.72
73101;BME280;61288;53.446;-2.266;2023-06-01T09:32:19;102561.16;;;14.48;60.34
73101;BME280;61288;53.446;-2.266;2023-06-01T09:34:47;102556.78;;;14.81;58.72
73101;BME280;61288;53.446;-2.266;2023-06-01T09:37:12;102556.59;;;14.87;57.44
73101;BME280;61288;53.446;-2.266;2023-06-01T09:39:39;102547.75;;;14.93;57.10
73101;BME280;61288;53.446;-2.266;2023-06-01T09:42:05;102540.34;;;15.08;57.28
73101;BME280;61288;53.446;-2.266;2023-06-01T09:44:35;102549.41;;;14.96;58.37
73101;BME280;61288;53.446;-2.266;2023-06-01T09:47:09;102558.38;;;14.87;57.11
73101;BME280;61288;53.446;-2.266;2023-06-01T09:49:43;102554.31;;;14.77;58.10
73101;BME280;61288;53.446;-2.266;2023-06-01T09:57:04;102545.78;;;14.70;58.49
73101;BME280;61288;53.446;-2.266;2023-06-01T09:59:44;102545.13;;;14.62;58.03
73101;BME280;61288;53.446;-2.266;2023-06-01T10:02:15;102553.16;;;14.54;58.27
73101;BME280;61288;53.446;-2.266;2023-06-01T10:04:44;102546.88;;;14.61;59.09
73101;BME280;61288;53.446;-2.266;2023-06-01T10:07:12;102549.09;;;14.77;58.54
73101;BME280;61288;53.446;-2.266;2023-06-01T10:09:38;102554.53;;;14.99;57.59
73101;BME280;61288;53.446;-2.266;2023-06-01T10:12:08;102543.31;;;14.97;57.96
73101;BME280;61288;53.446;-2.266;2023-06-01T10:14:39;102555.84;;;15.14;57.71
73101;BME280;61288;53.446;-2.266;2023-06-01T10:17:05;102545.56;;;15.08;57.44
73101;BME280;61288;53.446;-2.266;2023-06-01T10:19:31;102540.47;;;15.33;58.42
73101;BME280;61288;53.446;-2.266;2023-06-01T10:21:58;102541.06;;;15.41;56.24
73101;BME280;61288;53.446;-2.266;2023-06-01T10:24:23;102542.75;;;15.44;56.25
73101;BME280;61288;53.446;-2.266;2023-06-01T10:27:03;102545.53;;;15.38;56.39
73101;BME280;61288;53.446;-2.266;2023-06-01T10:29:31;102541.75;;;15.48;54.95
73101;BME280;61288;53.446;-2.266;2023-06-01T10:31:57;102537.56;;;15.42;55.90
73101;BME280;61288;53.446;-2.266;2023-06-01T10:34:55;102534.78;;;15.19;55.85
73101;BME280;61288;53.446;-2.266;2023-06-01T10:37:25;102523.50;;;15.18;56.02
73101;BME280;61288;53.446;-2.266;2023-06-01T10:39:51;102524.19;;;15.25;56.54
73101;BME280;61288;53.446;-2.266;2023-06-01T10:52:26;102527.28;;;15.92;55.08
73101;BME280;61288;53.446;-2.266;2023-06-01T10:54:52;102522.72;;;15.98;55.97
73101;BME280;61288;53.446;-2.266;2023-06-01T10:57:27;102515.06;;;16.17;56.50
73101;BME280;61288;53.446;-2.266;2023-06-01T11:02:56;102520.13;;;16.48;54.85
73101;BME280;61288;53.446;-2.266;2023-06-01T11:13:27;102517.09;;;17.28;53.74
73101;BME280;61288;53.446;-2.266;2023-06-01T11:18:51;102528.72;;;17.43;54.49
73101;BME280;61288;53.446;-2.266;2023-06-01T11:21:28;102514.31;;;17.54;53.64
73101;BME280;61288;53.446;-2.266;2023-06-01T11:23:56;102520.88;;;16.99;53.30
73101;BME280;61288;53.446;-2.266;2023-06-01T11:26:24;102525.47;;;17.37;53.52
73101;BME280;61288;53.446;-2.266;2023-06-01T11:29:07;102526.53;;;17.32;53.93
73101;BME280;61288;53.446;-2.266;2023-06-01T11:31:35;102513.00;;;17.43;54.44
73101;BME280;61288;53.446;-2.266;2023-06-01T11:34:01;102516.91;;;17.76;55.20
73101;BME280;61288;53.446;-2.266;2023-06-01T11:36:27;102508.41;;;17.49;53.48
73101;BME280;61288;53.446;-2.266;2023-06-01T11:38:54;102521.78;;;17.42;54.83
73101;BME280;61288;53.446;-2.266;2023-06-01T11:41:21;102507.44;;;17.72;54.70
73101;BME280;61288;53.446;-2.266;2023-06-01T11:43:57;102518.41;;;17.61;55.08
73101;BME280;61288;53.446;-2.266;2023-06-01T11:46:24;102518.00;;;18.13;55.22
73101;BME280;61288;53.446;-2.266;2023-06-01T11:49:08;102505.13;;;18.47;54.54
73101;BME280;61288;53.446;-2.266;2023-06-01T11:51:38;102510.22;;;18.31;52.25
73101;BME280;61288;53.446;-2.266;2023-06-01T11:54:10;102524.31;;;17.87;52.76
73101;BME280;61288;53.446;-2.266;2023-06-01T11:56:36;102516.56;;;17.63;53.71
73101;BME280;61288;53.446;-2.266;2023-06-01T11:59:05;102523.41;;;17.23;54.58
73101;BME280;61288;53.446;-2.266;2023-06-01T12:01:35;102517.66;;;16.91;56.58
73101;BME280;61288;53.446;-2.266;2023-06-01T12:04:04;102520.38;;;16.87;56.70
73101;BME280;61288;53.446;-2.266;2023-06-01T12:06:33;102522.69;;;16.95;56.82
73101;BME280;61288;53.446;-2.266;2023-06-01T12:08:58;102514.81;;;16.97;57.33
73101;BME280;61288;53.446;-2.266;2023-06-01T12:11:25;102524.88;;;16.84;57.10
73101;BME280;61288;53.446;-2.266;2023-06-01T12:13:54;102525.44;;;16.68;57.37
73101;BME280;61288;53.446;-2.266;2023-06-01T12:16:21;102518.53;;;16.43;58.23
73101;BME280;61288;53.446;-2.266;2023-06-01T12:18:47;102522.31;;;16.35;58.76
73101;BME280;61288;53.446;-2.266;2023-06-01T12:21:14;102515.34;;;16.10;59.47
73101;BME280;61288;53.446;-2.266;2023-06-01T12:23:42;102517.19;;;16.06;59.47
73101;BME280;61288;53.446;-2.266;2023-06-01T12:26:07;102524.75;;;16.15;59.95
73101;BME280;61288;53.446;-2.266;2023-06-01T12:28:53;102521.38;;;16.12;59.35
73101;BME280;61288;53.446;-2.266;2023-06-01T12:31:20;102516.03;;;16.15;59.31
73101;BME280;61288;53.446;-2.266;2023-06-01T12:33:47;102513.97;;;16.23;59.65
73101;BME280;61288;53.446;-2.266;2023-06-01T12:36:35;102511.66;;;16.15;59.86
73101;BME280;61288;53.446;-2.266;2023-06-01T12:39:02;102515.91;;;16.18;59.65
73101;BME280;61288;53.446;-2.266;2023-06-01T12:41:31;102526.53;;;16.39;59.83
73101;BME280;61288;53.446;-2.266;2023-06-01T12:43:57;102522.97;;;16.41;60.08
73101;BME280;61288;53.446;-2.266;2023-06-01T12:46:27;102524.31;;;16.52;59.81
73101;BME280;61288;53.446;-2.266;2023-06-01T12:48:54;102536.03;;;16.41;58.88
73101;BME280;61288;53.446;-2.266;2023-06-01T12:51:36;102521.41;;;16.36;58.98
73101;BME280;61288;53.446;-2.266;2023-06-01T12:54:02;102524.19;;;16.31;58.94
73101;BME280;61288;53.446;-2.266;2023-06-01T12:56:28;102526.00;;;16.29;59.61
73101;BME280;61288;53.446;-2.266;2023-06-01T12:58:54;102529.06;;;16.66;58.54
73101;BME280;61288;53.446;-2.266;2023-06-01T13:01:20;102516.63;;;16.47;58.07
73101;BME280;61288;53.446;-2.266;2023-06-01T13:03:45;102518.16;;;16.29;59.92
73101;BME280;61288;53.446;-2.266;2023-06-01T13:06:11;102518.84;;;16.34;59.86
73101;BME280;61288;53.446;-2.266;2023-06-01T13:08:37;102515.97;;;16.66;59.25
73101;BME280;61288;53.446;-2.266;2023-06-01T13:11:03;102526.88;;;16.77;58.83
73101;BME280;61288;53.446;-2.266;2023-06-01T13:13:28;102521.53;;;16.80;58.62
73101;BME280;61288;53.446;-2.266;2023-06-01T13:15:54;102511.31;;;16.98;58.25
73101;BME280;61288;53.446;-2.266;2023-06-01T13:18:20;102517.31;;;16.76;57.77
73101;BME280;61288;53.446;-2.266;2023-06-01T13:20:46;102518.50;;;16.91;58.89
73101;BME280;61288;53.446;-2.266;2023-06-01T13:23:12;102503.75;;;16.88;59.54